createdAt,value
2022-09-20T00:01:21.932Z,79.11
2022-09-20T00:03:51.514Z,79.19
2022-09-20T00:06:22.692Z,79.17
2022-09-20T00:08:50.872Z,79.74
2022-09-20T00:11:21.964Z,79.42
2022-09-20T00:13:52.250Z,79.13
2022-09-20T00:16:23.729Z,79.87
2022-09-20T00:18:52.960Z,79.22
2022-09-20T00:21:23.186Z,79.77
2022-09-20T00:23:52.432Z,78.72
2022-09-20T00:26:21.855Z,78.78
2022-09-20T00:28:50.792Z,79.20
2022-09-20T00:31:18.921Z,78.67
2022-09-20T00:34:04.840Z,78.50
2022-09-20T00:36:32.756Z,78.60
2022-09-20T00:39:03.027Z,79.21
2022-09-20T00:41:33.440Z,79.22
2022-09-20T00:44:02.690Z,78.65
2022-09-20T00:46:37.516Z,78.95
2022-09-20T00:49:12.521Z,79.02
2022-09-20T00:51:44.125Z,79.24
2022-09-20T00:54:18.182Z,79.30
2022-09-20T00:56:49.986Z,79.95
2022-09-20T00:59:20.816Z,79.31
2022-09-20T01:01:53.540Z,78.95
2022-09-20T01:04:25.235Z,79.34
2022-09-20T01:06:55.848Z,79.33
2022-09-20T01:09:23.801Z,79.23
2022-09-20T01:11:55.407Z,79.28
2022-09-20T01:14:24.173Z,79.46
2022-09-20T01:16:54.593Z,79.01
2022-09-20T01:19:33.676Z,78.58
2022-09-20T01:22:05.352Z,78.44
2022-09-20T01:24:42.675Z,79.44
2022-09-20T01:27:23.333Z,79.14
2022-09-20T01:30:05.189Z,78.82
2022-09-20T01:32:44.030Z,78.68
2022-09-20T01:35:13.053Z,79.16
2022-09-20T01:37:54.583Z,78.56
2022-09-20T01:40:31.832Z,78.97
2022-09-20T01:43:09.428Z,79.35
2022-09-20T01:45:46.103Z,78.98
2022-09-20T01:48:20.687Z,79.36
2022-09-20T01:51:12.429Z,79.03
2022-09-20T01:54:10.869Z,79.16
2022-09-20T01:57:12.035Z,79.57
2022-09-20T01:59:56.760Z,79.14
2022-09-20T02:03:00.948Z,78.60
2022-09-20T02:06:08.568Z,78.64
2022-09-20T02:09:08.719Z,78.72
2022-09-20T02:11:52.125Z,79.05
2022-09-20T02:14:33.185Z,79.04
2022-09-20T02:17:12.112Z,79.52
2022-09-20T02:20:05.460Z,79.51
2022-09-20T02:22:45.772Z,79.80
2022-09-20T02:25:24.716Z,79.62
2022-09-20T02:28:07.356Z,79.45
2022-09-20T02:30:50.287Z,79.21
2022-09-20T02:33:33.444Z,79.65
2022-09-20T02:36:17.540Z,80.40
2022-09-20T02:39:00.235Z,80.02
2022-09-20T02:41:59.985Z,80.68
2022-09-20T02:44:44.943Z,79.82
2022-09-20T02:47:22.643Z,80.23
2022-09-20T02:50:04.168Z,80.15
2022-09-20T02:52:38.972Z,80.36
2022-09-20T02:55:13.110Z,80.23
2022-09-20T02:57:53.667Z,79.90
2022-09-20T03:00:25.388Z,80.61
2022-09-20T03:03:06.318Z,80.47
2022-09-20T03:05:48.883Z,80.52
2022-09-20T03:08:31.179Z,81.39
2022-09-20T03:11:10.524Z,80.45
2022-09-20T03:13:55.696Z,81.57
2022-09-20T03:16:36.463Z,81.16
2022-09-20T03:19:16.653Z,81.33
2022-09-20T03:21:57.753Z,81.51
2022-09-20T03:24:40.627Z,81.39
2022-09-20T03:27:17.612Z,81.99
2022-09-20T03:30:00.000Z,82.15
2022-09-20T03:32:45.854Z,81.28
2022-09-20T03:35:30.296Z,81.59
2022-09-20T03:38:14.148Z,81.67
2022-09-20T03:40:59.855Z,81.92
2022-09-20T03:43:42.669Z,81.85
2022-09-20T03:46:18.933Z,81.62
2022-09-20T03:49:33.568Z,81.34
2022-09-20T03:52:14.192Z,81.14
2022-09-20T03:55:11.768Z,81.08
2022-09-20T03:58:08.742Z,81.10
2022-09-20T04:00:53.079Z,82.03
2022-09-20T04:03:29.679Z,81.52
2022-09-20T04:06:19.120Z,81.17
2022-09-20T04:09:06.005Z,81.26
2022-09-20T04:11:44.382Z,81.46
2022-09-20T04:14:24.120Z,81.42
2022-09-20T04:17:01.113Z,81.31
2022-09-20T04:19:36.545Z,80.49
2022-09-20T04:22:07.436Z,81.11
2022-09-20T04:24:43.101Z,81.11
2022-09-20T04:27:16.202Z,80.69
2022-09-20T04:29:51.529Z,80.16
2022-09-20T04:32:26.110Z,80.35
2022-09-20T04:35:19.084Z,81.04
2022-09-20T04:37:48.595Z,81.14
2022-09-20T04:40:31.895Z,80.44
2022-09-20T04:43:35.315Z,80.42
2022-09-20T04:46:28.540Z,80.62
2022-09-20T04:49:32.411Z,80.73
2022-09-20T04:52:39.129Z,80.75
2022-09-20T04:55:49.564Z,81.16
2022-09-20T04:58:49.578Z,81.07
2022-09-20T05:01:45.670Z,81.00
2022-09-20T05:04:55.093Z,81.18
2022-09-20T05:07:57.686Z,81.21
2022-09-20T05:10:59.313Z,81.03
2022-09-20T05:13:39.624Z,81.11
2022-09-20T05:16:16.926Z,80.86
2022-09-20T05:19:12.197Z,80.58
2022-09-20T05:21:58.517Z,80.39
2022-09-20T05:25:07.299Z,80.16
2022-09-20T05:27:43.208Z,80.20
2022-09-20T05:30:20.700Z,79.67
2022-09-20T05:33:00.098Z,79.54
2022-09-20T05:35:35.213Z,79.99
2022-09-20T05:38:12.811Z,80.40
2022-09-20T05:41:00.430Z,80.20
2022-09-20T05:43:33.389Z,80.58
2022-09-20T05:46:16.438Z,79.80
2022-09-20T05:48:56.455Z,79.90
2022-09-20T05:51:57.806Z,79.45
2022-09-20T05:54:37.562Z,80.15
2022-09-20T05:57:18.044Z,79.04
2022-09-20T06:00:00.015Z,79.78
2022-09-20T06:02:42.417Z,79.74
2022-09-20T06:05:16.795Z,79.33
2022-09-20T06:08:17.137Z,78.93
2022-09-20T06:11:10.066Z,80.06
2022-09-20T06:14:01.106Z,79.53
2022-09-20T06:16:37.030Z,79.51
2022-09-20T06:19:15.171Z,80.04
2022-09-20T06:21:51.166Z,79.57
2022-09-20T06:24:33.758Z,78.99
2022-09-20T06:27:06.394Z,79.19
2022-09-20T06:29:38.555Z,79.07
2022-09-20T06:32:06.694Z,79.46
2022-09-20T06:34:35.244Z,78.98
2022-09-20T06:37:36.561Z,78.63
2022-09-20T06:40:38.887Z,77.46
2022-09-20T06:43:07.062Z,78.29
2022-09-20T06:45:35.795Z,78.21
2022-09-20T06:48:03.737Z,78.77
2022-09-20T06:50:33.665Z,78.12
2022-09-20T06:53:02.281Z,77.39
2022-09-20T06:55:37.359Z,76.97
2022-09-20T06:58:05.324Z,76.38
2022-09-20T07:00:33.338Z,75.87
2022-09-20T07:03:01.375Z,76.08
2022-09-20T07:05:29.260Z,75.22
2022-09-20T07:08:01.410Z,74.86
2022-09-20T07:10:30.755Z,75.21
2022-09-20T07:13:00.371Z,74.41
2022-09-20T07:15:28.864Z,75.06
2022-09-20T07:17:56.788Z,75.41
2022-09-20T07:20:24.844Z,74.89
2022-09-20T07:22:53.587Z,75.10
2022-09-20T07:25:21.636Z,75.26
2022-09-20T07:27:52.190Z,75.58
2022-09-20T07:30:21.702Z,75.23
2022-09-20T07:32:50.354Z,75.62
2022-09-20T07:35:18.180Z,75.26
2022-09-20T07:37:46.943Z,75.37
2022-09-20T07:40:15.859Z,76.01
2022-09-20T07:42:46.005Z,76.16
2022-09-20T07:45:15.567Z,76.49
2022-09-20T07:47:44.868Z,76.36
2022-09-20T07:50:13.141Z,76.53
2022-09-20T07:52:41.025Z,76.69
2022-09-20T07:55:09.978Z,76.97
2022-09-20T07:57:38.282Z,76.94
2022-09-20T08:00:08.410Z,76.15
2022-09-20T08:02:41.868Z,76.53
2022-09-20T08:05:10.113Z,75.85
2022-09-20T08:07:38.556Z,76.27
2022-09-20T08:10:07.616Z,75.52
2022-09-20T08:15:24.527Z,74.30
2022-09-20T08:17:54.044Z,73.82
2022-09-20T08:20:21.883Z,73.79
2022-09-20T08:23:06.371Z,74.00
2022-09-20T08:25:38.364Z,73.81
2022-09-20T08:28:06.267Z,73.63
2022-09-20T08:30:34.181Z,73.28
2022-09-20T08:33:04.873Z,73.15
2022-09-20T08:35:32.742Z,72.78
2022-09-20T08:40:50.473Z,72.11
2022-09-20T08:43:22.225Z,71.79
2022-09-20T08:45:50.840Z,71.19
2022-09-20T08:48:23.822Z,71.04
2022-09-20T08:50:51.694Z,70.50
2022-09-20T08:53:21.266Z,69.80
2022-09-20T08:55:49.862Z,68.94
2022-09-20T08:58:19.440Z,68.13
2022-09-20T09:00:54.530Z,67.75
2022-09-20T09:03:24.221Z,67.57
2022-09-20T09:05:55.019Z,67.64
2022-09-20T09:08:27.300Z,66.85
2022-09-20T09:10:58.240Z,67.04
2022-09-20T09:13:31.166Z,66.90
2022-09-20T09:16:01.266Z,66.63
2022-09-20T09:18:35.053Z,66.71
2022-09-20T09:21:05.303Z,66.80
2022-09-20T09:23:43.516Z,66.64
2022-09-20T09:26:19.957Z,65.38
2022-09-20T09:28:48.403Z,65.35
2022-09-20T09:31:25.804Z,65.33
2022-09-20T09:33:55.925Z,65.26
2022-09-20T09:36:25.970Z,64.99
2022-09-20T09:39:16.480Z,65.17
2022-09-20T09:41:46.353Z,64.94
2022-09-20T09:44:23.317Z,63.66
2022-09-20T09:46:53.641Z,63.67
2022-09-20T09:49:25.494Z,63.60
2022-09-20T09:52:12.967Z,62.87
2022-09-20T09:54:44.462Z,63.06
2022-09-20T09:57:35.362Z,63.26
2022-09-20T10:00:17.764Z,63.50
2022-09-20T10:03:15.061Z,64.35
2022-09-20T10:06:00.622Z,64.39
2022-09-20T10:08:38.251Z,64.75
2022-09-20T10:11:19.240Z,65.31
2022-09-20T10:13:58.478Z,66.03
2022-09-20T10:16:37.675Z,66.05
2022-09-20T10:19:15.084Z,65.97
2022-09-20T10:21:56.284Z,66.17
2022-09-20T10:24:36.397Z,65.09
2022-09-20T10:27:19.267Z,65.01
2022-09-20T10:30:02.907Z,64.96
2022-09-20T10:32:53.954Z,65.22
2022-09-20T10:35:30.359Z,64.64
2022-09-20T10:38:21.633Z,64.34
2022-09-20T10:41:28.259Z,64.19
2022-09-20T10:44:13.606Z,64.64
2022-09-20T10:46:49.928Z,64.39
2022-09-20T10:49:25.015Z,64.40
2022-09-20T10:52:10.062Z,64.23
2022-09-20T10:54:53.826Z,63.71
2022-09-20T10:57:46.541Z,63.24
2022-09-20T11:00:22.231Z,63.58
2022-09-20T11:03:08.011Z,63.61
2022-09-20T11:05:44.855Z,63.39
2022-09-20T11:08:16.324Z,63.40
2022-09-20T11:10:50.163Z,62.54
2022-09-20T11:13:26.196Z,62.35
2022-09-20T11:16:01.681Z,62.40
2022-09-20T11:18:35.689Z,62.07
2022-09-20T11:21:09.532Z,62.04
2022-09-20T11:23:46.307Z,60.91
2022-09-20T11:26:22.447Z,61.03
2022-09-20T11:28:55.098Z,61.03
2022-09-20T11:31:27.802Z,60.86
2022-09-20T11:34:00.424Z,60.42
2022-09-20T11:36:38.321Z,60.78
2022-09-20T11:39:14.917Z,61.26
2022-09-20T11:41:44.905Z,60.72
2022-09-20T11:44:16.281Z,59.90
2022-09-20T11:46:52.268Z,59.56
2022-09-20T11:49:24.896Z,59.22
2022-09-20T11:52:17.482Z,59.05
2022-09-20T11:55:28.106Z,58.66
2022-09-20T11:58:08.222Z,58.64
2022-09-20T12:00:38.757Z,58.00
2022-09-20T12:03:21.745Z,58.14
2022-09-20T12:05:58.903Z,59.77
2022-09-20T12:08:30.504Z,60.90
2022-09-20T12:11:04.221Z,62.59
2022-09-20T12:13:36.381Z,63.90
2022-09-20T12:16:07.685Z,63.72
2022-09-20T12:18:47.998Z,63.46
2022-09-20T12:21:17.807Z,62.63
2022-09-20T12:24:18.162Z,62.24
2022-09-20T12:26:48.400Z,61.57
2022-09-20T12:29:55.205Z,61.72
2022-09-20T12:32:47.901Z,61.47
2022-09-20T12:35:59.269Z,61.54
2022-09-20T12:38:34.022Z,61.57
2022-09-20T12:41:05.837Z,61.59
2022-09-20T12:43:36.575Z,61.19
2022-09-20T12:46:09.880Z,60.78
2022-09-20T12:48:41.217Z,60.63
2022-09-20T12:51:40.349Z,61.18
2022-09-20T12:54:11.762Z,61.08
2022-09-20T12:56:41.777Z,61.12
2022-09-20T12:59:23.380Z,61.29
2022-09-20T13:01:51.803Z,61.48
2022-09-20T13:04:53.086Z,61.82
2022-09-20T13:07:53.184Z,62.01
2022-09-20T13:10:30.275Z,62.75
2022-09-20T13:13:19.883Z,62.98
2022-09-20T13:15:51.661Z,63.43
2022-09-20T13:18:20.295Z,64.10
2022-09-20T13:20:51.723Z,64.22
2022-09-20T13:23:24.887Z,65.75
2022-09-20T13:25:53.668Z,68.95
2022-09-20T13:28:31.331Z,79.49
2022-09-20T13:31:24.882Z,84.19
2022-09-20T13:33:53.744Z,86.34
2022-09-20T13:36:28.272Z,85.35
2022-09-20T13:38:58.662Z,84.01
2022-09-20T13:41:32.566Z,83.49
2022-09-20T13:44:01.384Z,89.71
2022-09-20T13:46:32.178Z,91.36
2022-09-20T13:49:15.070Z,92.19
2022-09-20T13:51:45.121Z,92.67
2022-09-20T13:54:26.641Z,93.13
2022-09-20T13:56:56.553Z,92.96
2022-09-20T13:59:25.140Z,92.39
2022-09-20T14:01:55.386Z,92.97
2022-09-20T14:04:26.490Z,93.10
2022-09-20T14:06:58.955Z,92.64
2022-09-20T14:09:31.612Z,91.83
2022-09-20T14:12:00.920Z,92.06
2022-09-20T14:14:29.802Z,90.58
2022-09-20T14:16:58.720Z,89.85
2022-09-20T14:19:31.498Z,90.48
2022-09-20T14:22:05.004Z,91.25
2022-09-20T14:24:35.529Z,92.56
2022-09-20T14:27:07.757Z,93.17
2022-09-20T14:29:41.010Z,93.44
2022-09-20T14:32:22.928Z,94.15
2022-09-20T14:35:00.112Z,93.45
2022-09-20T14:37:32.379Z,93.84
2022-09-20T14:40:03.509Z,94.47
2022-09-20T14:42:36.573Z,93.98
2022-09-20T14:45:06.215Z,93.94
2022-09-20T14:47:38.993Z,94.11
2022-09-20T14:50:24.822Z,93.99
2022-09-20T14:53:06.828Z,93.92
2022-09-20T14:55:37.928Z,94.39
2022-09-20T14:58:09.387Z,94.32
2022-09-20T15:00:52.940Z,93.65
2022-09-20T15:03:27.289Z,93.92
2022-09-20T15:05:56.032Z,94.11
2022-09-20T15:08:25.860Z,93.88
2022-09-20T15:10:53.678Z,94.25
2022-09-20T15:13:21.693Z,94.29
2022-09-20T15:15:52.149Z,94.26
2022-09-20T15:18:22.640Z,94.44
2022-09-20T15:20:51.061Z,94.25
2022-09-20T15:23:19.559Z,93.70
2022-09-20T15:25:51.466Z,94.15
2022-09-20T15:28:20.362Z,93.90
2022-09-20T15:30:50.032Z,93.87
2022-09-20T15:33:18.711Z,93.60
2022-09-20T15:35:47.256Z,93.92
2022-09-20T15:38:15.839Z,93.21
2022-09-20T15:40:45.521Z,93.02
2022-09-20T15:43:16.990Z,93.55
2022-09-20T15:45:50.532Z,93.86
2022-09-20T15:48:21.394Z,93.93
2022-09-20T15:51:02.866Z,93.79
2022-09-20T15:53:34.168Z,93.96
2022-09-20T15:56:04.423Z,94.68
2022-09-20T15:58:36.412Z,95.07
2022-09-20T16:01:06.898Z,94.75
2022-09-20T16:03:35.532Z,95.23
2022-09-20T16:06:05.696Z,95.83
2022-09-20T16:08:33.944Z,95.78
2022-09-20T16:11:03.086Z,95.29
2022-09-20T16:13:31.086Z,94.45
2022-09-20T16:16:01.641Z,93.63
2022-09-20T16:18:47.807Z,93.19
2022-09-20T16:21:18.087Z,94.19
2022-09-20T16:23:49.107Z,94.90
2022-09-20T16:26:17.438Z,93.27
2022-09-20T16:28:47.761Z,93.57
2022-09-20T16:31:36.584Z,93.18
2022-09-20T16:34:05.967Z,93.12
2022-09-20T16:36:34.219Z,93.60
2022-09-20T16:39:03.175Z,94.57
2022-09-20T16:41:31.988Z,94.43
2022-09-20T16:43:59.778Z,94.32
2022-09-20T16:46:28.174Z,93.58
2022-09-20T16:49:00.924Z,94.00
2022-09-20T16:51:34.030Z,94.28
2022-09-20T16:54:06.859Z,94.25
2022-09-20T16:56:36.214Z,94.85
2022-09-20T16:59:05.814Z,94.82
2022-09-20T17:01:34.367Z,95.49
2022-09-20T17:04:05.197Z,94.99
2022-09-20T17:06:35.051Z,94.76
2022-09-20T17:09:03.629Z,94.39
2022-09-20T17:11:33.117Z,94.13
2022-09-20T17:14:01.019Z,94.13
2022-09-20T17:16:30.652Z,93.27
2022-09-20T17:19:00.569Z,92.39
2022-09-20T17:21:31.138Z,92.57
2022-09-20T17:24:00.642Z,90.90
2022-09-20T17:26:31.412Z,90.93
2022-09-20T17:28:59.283Z,91.15
2022-09-20T17:31:33.908Z,91.20
2022-09-20T17:34:02.379Z,91.94
2022-09-20T17:36:33.001Z,92.51
2022-09-20T17:39:04.502Z,91.91
2022-09-20T17:41:33.754Z,92.23
2022-09-20T17:44:07.923Z,92.88
2022-09-20T17:46:37.416Z,93.22
2022-09-20T17:49:07.341Z,94.00
2022-09-20T17:51:38.666Z,93.94
2022-09-20T17:54:07.617Z,94.16
2022-09-20T17:56:36.217Z,94.67
2022-09-20T17:59:06.252Z,95.47
2022-09-20T18:01:36.928Z,95.84
2022-09-20T18:04:06.907Z,96.46
2022-09-20T18:06:37.459Z,97.46
2022-09-20T18:09:09.176Z,97.27
2022-09-20T18:11:38.997Z,97.49
2022-09-20T18:14:08.426Z,97.68
2022-09-20T18:16:37.081Z,97.72
2022-09-20T18:19:06.072Z,97.94
2022-09-20T18:21:36.908Z,97.78
2022-09-20T18:24:07.039Z,97.67
2022-09-20T18:26:35.903Z,98.02
2022-09-20T18:29:06.389Z,98.27
2022-09-20T18:31:36.821Z,98.08
2022-09-20T18:34:06.573Z,97.90
2022-09-20T18:36:39.040Z,98.34
2022-09-20T18:39:07.692Z,97.82
2022-09-20T18:41:37.264Z,97.50
2022-09-20T18:44:07.528Z,97.93
2022-09-20T18:46:38.140Z,98.55
2022-09-20T18:49:08.271Z,98.33
2022-09-20T18:51:39.990Z,98.32
2022-09-20T18:54:10.107Z,98.84
2022-09-20T18:56:39.202Z,98.66
2022-09-20T18:59:09.157Z,99.08
2022-09-20T19:02:09.864Z,98.68
2022-09-20T19:04:52.072Z,99.25
2022-09-20T19:07:29.392Z,98.79
2022-09-20T19:10:04.127Z,98.67
2022-09-20T19:12:37.280Z,99.71
2022-09-20T19:15:21.409Z,99.23
2022-09-20T19:18:06.067Z,99.07
2022-09-20T19:20:41.971Z,99.20
2022-09-20T19:23:28.865Z,99.07
2022-09-20T19:26:08.201Z,99.22
2022-09-20T19:28:36.508Z,99.69
2022-09-20T19:31:04.955Z,99.34
2022-09-20T19:33:33.246Z,99.86
2022-09-20T19:36:03.231Z,100.00
2022-09-20T19:38:41.316Z,99.93
2022-09-20T19:41:27.404Z,99.75
2022-09-20T19:44:14.236Z,100.00
2022-09-20T19:46:53.081Z,100.00
2022-09-20T19:49:28.473Z,100.00
2022-09-20T19:51:57.768Z,99.96
2022-09-20T19:54:27.564Z,100.00
2022-09-20T19:56:57.639Z,100.00
2022-09-20T19:59:27.312Z,100.00
2022-09-20T20:01:56.411Z,100.00
2022-09-20T20:04:24.794Z,100.00
2022-09-20T20:07:02.066Z,100.00
2022-09-20T20:09:39.920Z,100.00
2022-09-20T20:12:15.490Z,99.96
2022-09-20T20:14:54.278Z,99.82
2022-09-20T20:17:35.933Z,100.00
2022-09-20T20:20:20.092Z,100.00
2022-09-20T20:23:12.290Z,100.00
2022-09-20T20:25:48.023Z,100.00
2022-09-20T20:28:15.835Z,100.00
2022-09-20T20:30:43.610Z,100.00
2022-09-20T20:33:15.015Z,100.00
2022-09-20T20:35:43.002Z,100.00
2022-09-20T20:38:12.553Z,100.00
2022-09-20T20:40:41.714Z,100.00
2022-09-20T20:43:09.861Z,96.97
2022-09-20T20:45:38.618Z,97.65
2022-09-20T20:48:06.373Z,98.39
2022-09-20T20:50:35.345Z,99.11
2022-09-20T20:53:03.132Z,99.54
2022-09-20T20:55:31.246Z,99.31
2022-09-20T20:58:00.339Z,99.13
2022-09-20T21:00:29.944Z,98.26
2022-09-20T21:02:59.874Z,98.07
2022-09-20T21:05:28.769Z,98.08
2022-09-20T21:07:57.865Z,97.30
2022-09-20T21:10:25.831Z,97.39
2022-09-20T21:12:55.394Z,97.08
2022-09-20T21:15:24.520Z,96.09
2022-09-20T21:17:52.901Z,95.81
2022-09-20T21:20:21.340Z,95.93
2022-09-20T21:22:49.163Z,95.40
2022-09-20T21:25:17.251Z,95.97
2022-09-20T21:27:45.159Z,96.77
2022-09-20T21:30:13.777Z,96.73
2022-09-20T21:32:42.904Z,96.89
2022-09-20T21:35:11.401Z,95.93
2022-09-20T21:37:39.400Z,94.63
2022-09-20T21:40:09.004Z,94.39
2022-09-20T21:42:36.769Z,93.90
2022-09-20T21:45:08.494Z,94.19
2022-09-20T21:47:36.294Z,95.39
2022-09-20T21:50:06.176Z,94.90
2022-09-20T21:52:34.469Z,94.76
2022-09-20T21:55:02.234Z,95.37
2022-09-20T21:57:29.992Z,95.86
2022-09-20T21:59:57.757Z,96.76
2022-09-20T22:02:25.590Z,97.07
2022-09-20T22:04:53.489Z,96.92
2022-09-20T22:07:23.201Z,96.02
2022-09-20T22:09:51.033Z,96.27
2022-09-20T22:12:18.813Z,96.82
2022-09-20T22:14:46.600Z,96.62
2022-09-20T22:17:14.421Z,95.75
2022-09-20T22:19:42.316Z,95.58
2022-09-20T22:22:10.063Z,94.71
2022-09-20T22:24:39.183Z,93.40
2022-09-20T22:27:07.126Z,94.58
2022-09-20T22:29:35.159Z,94.25
2022-09-20T22:32:03.132Z,94.60
2022-09-20T22:34:30.882Z,94.71
2022-09-20T22:36:58.631Z,94.57
2022-09-20T22:39:26.447Z,94.46
2022-09-20T22:41:55.615Z,95.46
2022-09-20T22:44:23.452Z,94.96
2022-09-20T22:46:51.493Z,94.70
2022-09-20T22:49:19.279Z,95.46
2022-09-20T22:51:47.050Z,95.04
2022-09-20T22:54:14.875Z,95.93
2022-09-20T22:56:42.728Z,96.33
2022-09-20T22:59:13.470Z,96.68
2022-09-20T23:01:42.891Z,96.06
2022-09-20T23:04:12.904Z,96.38
2022-09-20T23:06:42.596Z,96.81
2022-09-20T23:09:12.411Z,97.07
2022-09-20T23:11:42.677Z,97.07
2022-09-20T23:14:13.883Z,97.10
2022-09-20T23:16:42.075Z,97.04
2022-09-20T23:19:10.705Z,97.10
2022-09-20T23:21:40.013Z,96.90
2022-09-20T23:24:10.081Z,97.31
2022-09-20T23:26:39.225Z,97.04
2022-09-20T23:29:08.992Z,96.51
2022-09-20T23:31:39.704Z,96.88
2022-09-20T23:34:08.911Z,97.30
2022-09-20T23:36:38.555Z,97.34
2022-09-20T23:39:07.405Z,96.91
2022-09-20T23:41:36.520Z,96.44
2022-09-20T23:44:06.394Z,96.70
2022-09-20T23:46:35.153Z,96.51
2022-09-20T23:49:04.462Z,96.30
2022-09-20T23:51:35.261Z,96.47
2022-09-20T23:54:03.097Z,95.87
2022-09-20T23:56:31.240Z,96.50
2022-09-20T23:58:59.144Z,96.39
